Time;durP1;ratioP1;P1;durP2;ratioP2;P2;SDS_P1;SDS_P2;PMS_P1;PMS_P2;Temp;Humidity;BMP_temperature;BMP_pressure;BME280_temperature;BME280_humidity;BME280_pressure;Samples;Min_cycle;Max_cycle;Signal;HPM_P1;HPM_P2
2024/04/15 00:01:37;;;;;;;3.20;1.92;;;;;;;-145.69;56.33;52016.66;5525237;26;20225;-78
2024/04/15 00:04:02;;;;;;;2.17;1.65;;;;;;;-145.69;56.46;51979.03;5520987;26;20249;-78
2024/04/15 00:06:33;;;;;;;2.92;1.77;;;;;;;-145.69;56.59;52004.75;5524982;26;20233;-78
2024/04/15 00:08:59;;;;;;;2.40;1.90;;;;;;;-145.69;56.29;52010.69;5525230;26;20281;-78
2024/04/15 00:11:27;;;;;;;5.90;1.63;;;;;;;-145.69;56.67;52014.66;5525420;26;20333;-79
2024/04/15 00:13:53;;;;;;;4.05;2.08;;;;;;;-145.69;56.55;52036.44;5524469;26;20592;-79
2024/04/15 00:16:21;;;;;;;4.05;1.98;;;;;;;-145.69;56.44;52014.66;5524662;26;20288;-78
2024/04/15 00:18:46;;;;;;;4.70;1.88;;;;;;;-145.69;56.47;52020.59;5525465;26;20273;-79
2024/04/15 00:21:14;;;;;;;2.55;1.88;;;;;;;-145.69;56.57;52000.81;5528701;26;20321;-78
2024/04/15 00:23:43;;;;;;;3.67;1.90;;;;;;;-145.69;56.53;52004.75;5528229;26;20255;-79
2024/04/15 00:26:11;;;;;;;5.43;2.05;;;;;;;-145.69;56.86;52022.59;5528118;26;20332;-78
2024/04/15 00:28:37;;;;;;;2.70;1.70;;;;;;;-145.69;57.50;52026.53;5528866;26;20264;-78
2024/04/15 00:31:05;;;;;;;2.78;2.00;;;;;;;-145.69;57.33;52028.53;5528414;26;21018;-79
2024/04/15 00:33:31;;;;;;;4.63;1.90;;;;;;;-145.69;57.43;52022.59;5527966;26;20284;-78
2024/04/15 00:35:59;;;;;;;2.30;1.73;;;;;;;-145.69;56.62;52022.59;5527504;26;20808;-79
2024/04/15 00:38:25;;;;;;;1.63;1.40;;;;;;;-145.69;54.91;52010.69;5528406;26;21144;-79
2024/04/15 00:40:56;;;;;;;2.55;1.80;;;;;;;-145.69;51.64;52004.75;5526968;26;20233;-79
2024/04/15 00:43:21;;;;;;;2.17;1.70;;;;;;;-145.69;50.44;51992.88;5524201;26;20860;-79
2024/04/15 00:45:49;;;;;;;2.75;1.75;;;;;;;-145.69;50.55;52010.69;5528192;26;20241;-79
2024/04/15 00:48:17;;;;;;;6.72;1.85;;;;;;;-145.69;49.67;51969.13;5528475;26;20252;-79
2024/04/15 00:50:48;;;;;;;2.90;1.80;;;;;;;-145.69;49.40;51969.13;5527122;26;20623;-79
2024/04/15 00:53:18;;;;;;;3.28;1.90;;;;;;;-145.69;48.70;52000.81;5528087;26;20798;-79
2024/04/15 00:55:49;;;;;;;2.47;1.70;;;;;;;-145.69;48.72;52004.75;5527923;26;20221;-78
2024/04/15 00:58:19;;;;;;;2.22;1.75;;;;;;;-145.69;48.70;51969.13;5528482;26;20729;-77
2024/04/15 01:00:48;;;;;;;2.20;1.73;;;;;;;-145.69;49.30;51973.06;5527452;26;20302;-79
2024/04/15 01:03:14;;;;;;;3.97;1.85;;;;;;;-145.69;49.29;52014.66;5528303;26;20222;-77
2024/04/15 01:05:42;;;;;;;4.63;1.90;;;;;;;-145.69;49.93;51996.84;5527832;26;20285;-79
2024/04/15 01:08:08;;;;;;;3.33;2.10;;;;;;;-145.69;50.64;51981.00;5527435;26;20229;-79
2024/04/15 01:10:37;;;;;;;4.85;2.03;;;;;;;-145.69;50.84;51996.84;5527184;26;20229;-77
2024/04/15 01:13:03;;;;;;;5.05;2.00;;;;;;;-145.69;51.18;52040.41;5526829;26;20226;-78
2024/04/15 01:15:34;;;;;;;2.78;2.00;;;;;;;-145.69;51.39;52008.72;5526668;26;20233;-78
2024/04/15 01:18:01;;;;;;;2.85;1.95;;;;;;;-145.69;52.20;51963.19;5527498;26;20231;-78
2024/04/15 01:20:29;;;;;;;3.83;1.80;;;;;;;-145.69;52.44;52014.66;5527515;26;20728;-78
2024/04/15 01:23:01;;;;;;;2.13;1.65;;;;;;;-145.69;52.42;52008.72;5527857;26;20225;-78
2024/04/15 01:25:32;;;;;;;2.85;1.98;;;;;;;-145.69;52.77;51996.84;5528041;26;20298;-79
2024/04/15 01:27:58;;;;;;;2.90;1.95;;;;;;;-145.69;54.01;51973.06;5527319;26;20268;-78
2024/04/15 01:30:26;;;;;;;3.40;1.90;;;;;;;-145.69;54.97;52032.47;5526371;26;21054;-78
2024/04/15 01:32:52;;;;;;;2.70;1.70;;;;;;;-145.69;54.10;52020.59;5527082;26;20708;-78
2024/04/15 01:35:20;;;;;;;3.65;2.05;;;;;;;-145.69;55.47;52012.69;5527726;26;20264;-78
2024/04/15 01:37:45;;;;;;;6.03;3.58;;;;;;;-145.69;56.20;51986.94;5527762;26;20229;-77
2024/04/15 01:40:14;;;;;;;4.97;2.10;;;;;;;-145.69;55.87;52000.81;5526578;26;20283;-78
2024/04/15 01:42:42;;;;;;;2.92;2.13;;;;;;;-145.69;55.81;52008.72;5528091;26;20234;-78
2024/04/15 01:45:11;;;;;;;3.25;2.30;;;;;;;-145.69;56.28;52006.75;5527211;26;20233;-78
2024/04/15 01:47:36;;;;;;;3.15;2.00;;;;;;;-145.69;56.63;52016.66;5526300;26;20373;-78
2024/04/15 01:50:05;;;;;;;3.75;2.10;;;;;;;-145.69;56.95;52022.59;5527009;26;20716;-77
2024/04/15 01:52:30;;;;;;;3.35;2.00;;;;;;;-145.69;57.43;52012.69;5526972;26;20332;-78
2024/04/15 01:54:58;;;;;;;4.40;2.00;;;;;;;-145.69;57.98;52004.75;5527128;26;20225;-77
2024/04/15 01:57:24;;;;;;;5.32;2.00;;;;;;;-145.69;58.16;52000.81;5527171;26;20267;-77
2024/04/15 01:59:55;;;;;;;4.60;2.28;;;;;;;-145.69;58.25;51986.94;5527365;26;20229;-77
2024/04/15 02:02:20;;;;;;;5.45;2.00;;;;;;;-145.69;58.48;52006.75;5526921;26;20221;-77
2024/04/15 02:04:48;;;;;;;3.17;2.53;;;;;;;-145.69;58.49;52000.81;5526695;26;20751;-78
2024/04/15 02:07:14;;;;;;;3.08;2.15;;;;;;;-145.69;58.59;52032.47;5526236;26;20249;-78
2024/04/15 02:09:42;;;;;;;5.30;2.13;;;;;;;-145.69;59.06;52024.56;5526728;26;20592;-78
2024/04/15 02:12:08;;;;;;;2.88;2.08;;;;;;;-145.69;59.23;52026.53;5526803;26;20225;-78
2024/04/15 02:14:36;;;;;;;3.00;2.00;;;;;;;-145.69;59.32;52034.47;5526711;26;20317;-78
2024/04/15 02:17:04;;;;;;;3.78;2.03;;;;;;;-145.69;59.62;52000.81;5526314;26;20229;-78
2024/04/15 02:19:33;;;;;;;2.83;2.30;;;;;;;-145.69;59.63;52016.66;5526572;26;20255;-79
2024/04/15 02:21:58;;;;;;;7.10;2.03;;;;;;;-145.69;60.14;52046.34;5527066;26;20225;-78
2024/04/15 02:24:27;;;;;;;3.53;2.20;;;;;;;-145.69;59.66;52024.56;5526053;26;20291;-78
2024/04/15 02:26:53;;;;;;;2.25;1.67;;;;;;;-145.69;59.99;52012.69;5526473;26;20329;-78
2024/04/15 02:29:21;;;;;;;8.30;2.75;;;;;;;-145.69;61.17;52032.47;5527084;26;20708;-78
2024/04/15 02:31:47;;;;;;;6.18;2.50;;;;;;;-145.69;60.86;52026.53;5489628;26;20278;-78
2024/04/15 02:34:19;;;;;;;2.80;1.95;;;;;;;-145.69;60.06;52006.75;5489484;26;20635;-79
2024/04/15 02:36:45;;;;;;;5.72;2.22;;;;;;;-145.69;59.76;52012.69;5489953;26;20257;-78
2024/04/15 02:39:13;;;;;;;6.70;2.60;;;;;;;-145.69;59.37;52020.59;5489650;26;20226;-78
2024/04/15 02:41:38;;;;;;;5.05;2.40;;;;;;;-145.69;59.29;52016.66;5523902;26;20230;-78
2024/04/15 02:44:07;;;;;;;3.67;2.20;;;;;;;-145.69;58.94;52010.69;5524400;26;20790;-78
2024/04/15 02:46:32;;;;;;;2.88;2.00;;;;;;;-145.69;58.71;52028.53;5526787;26;20344;-78
2024/04/15 02:49:01;;;;;;;3.95;2.13;;;;;;;-145.69;58.21;52008.72;5510025;25;20242;-77
2024/04/15 02:51:31;;;;;;;3.97;2.22;;;;;;;-145.69;58.36;52016.66;5520040;26;20289;-78
2024/04/15 02:53:59;;;;;;;3.50;2.35;;;;;;;-145.69;58.41;52022.59;5526359;26;20268;-78
2024/04/15 02:56:25;;;;;;;3.75;2.20;;;;;;;-145.69;58.83;52004.75;5526386;26;20320;-78
2024/04/15 02:58:53;;;;;;;3.92;2.15;;;;;;;-145.69;59.03;51998.81;5525505;26;20222;-79
2024/04/15 03:01:18;;;;;;;5.40;2.38;;;;;;;-145.69;58.98;52004.75;5525580;26;20357;-78
2024/04/15 03:03:47;;;;;;;4.10;2.15;;;;;;;-145.69;59.08;51986.94;5526490;26;20233;-79
2024/04/15 03:06:18;;;;;;;4.78;2.45;;;;;;;-145.69;58.35;51996.84;5525577;26;20690;-78
2024/04/15 03:08:50;;;;;;;5.25;2.53;;;;;;;-145.69;58.85;51992.88;5526023;26;20272;-77
2024/04/15 03:11:15;;;;;;;4.55;2.53;;;;;;;-145.69;58.73;52004.75;5525959;26;20816;-77
2024/04/15 03:13:44;;;;;;;6.65;2.13;;;;;;;-145.69;58.88;52004.75;5526244;26;20226;-78
2024/04/15 03:16:09;;;;;;;4.60;2.47;;;;;;;-145.69;58.51;52012.69;5525557;26;20221;-78
2024/04/15 03:18:37;;;;;;;3.72;2.53;;;;;;;-145.69;58.91;52014.66;5525647;26;20639;-77
2024/04/15 03:21:07;;;;;;;7.65;2.70;;;;;;;-145.69;58.00;52028.53;5525781;26;20276;-78
2024/04/15 03:23:35;;;;;;;6.55;2.22;;;;;;;-145.69;58.03;52004.75;5525250;26;20237;-79
2024/04/15 03:26:03;;;;;;;5.55;2.20;;;;;;;-145.69;58.53;51992.88;5525835;26;20362;-81
2024/04/15 03:28:31;;;;;;;6.05;2.63;;;;;;;-145.69;58.33;52024.56;5525970;26;20256;-79
2024/04/15 03:30:57;;;;;;;4.32;2.17;;;;;;;-145.69;58.35;52012.69;5525950;26;20276;-79
2024/04/15 03:33:26;;;;;;;4.05;2.25;;;;;;;-145.69;58.45;52024.56;5525417;26;20553;-79
2024/04/15 03:35:51;;;;;;;4.75;1.90;;;;;;;-145.69;58.41;52010.69;5525318;26;20267;-78
2024/04/15 03:38:20;;;;;;;3.33;2.20;;;;;;;-145.69;59.19;52046.34;5525718;26;20233;-78
2024/04/15 03:40:45;;;;;;;4.90;2.28;;;;;;;-145.69;58.91;52028.53;5525863;26;20241;-78
2024/04/15 03:43:16;;;;;;;6.82;2.70;;;;;;;-145.69;58.73;52028.53;5525493;26;20225;-79
2024/04/15 03:45:41;;;;;;;3.20;2.35;;;;;;;-145.69;59.07;52012.69;5525990;26;20218;-78
2024/04/15 03:48:10;;;;;;;3.60;2.28;;;;;;;-145.69;59.21;52016.66;5525254;26;20268;-78
2024/04/15 03:50:35;;;;;;;6.05;2.38;;;;;;;-145.69;59.36;52028.53;5525298;26;20333;-78
2024/04/15 03:53:03;;;;;;;3.17;2.17;;;;;;;-145.69;59.86;52004.75;5524548;26;20237;-78
2024/04/15 03:55:29;;;;;;;7.15;3.33;;;;;;;-145.69;59.66;52006.75;5525043;26;20256;-78
2024/04/15 03:57:57;;;;;;;5.90;2.50;;;;;;;-145.69;59.64;52018.63;5525459;26;20241;-78
2024/04/15 04:00:25;;;;;;;2.92;2.10;;;;;;;-145.69;59.44;52016.66;5525545;26;20255;-78
2024/04/15 04:02:53;;;;;;;4.00;1.80;;;;;;;-145.69;59.64;52038.44;5525356;26;20626;-78
2024/04/15 04:05:19;;;;;;;4.88;2.05;;;;;;;-145.69;59.74;52036.44;5525637;26;20237;-78
2024/04/15 04:07:47;;;;;;;2.40;2.17;;;;;;;-145.69;59.61;52040.41;5525151;26;20954;-78
2024/04/15 04:10:14;;;;;;;3.78;2.20;;;;;;;-145.69;59.61;52046.34;5524999;26;20281;-78
2024/04/15 04:12:44;;;;;;;8.00;2.60;;;;;;;-145.69;59.58;52006.75;5517380;26;20948;-79
2024/04/15 04:15:10;;;;;;;7.40;2.63;;;;;;;-145.69;60.02;52016.66;5525398;26;20252;-79
2024/04/15 04:17:40;;;;;;;2.45;1.92;;;;;;;-145.69;60.41;52072.09;5525193;26;20240;-78
2024/04/15 04:20:07;;;;;;;7.00;2.72;;;;;;;-145.69;61.50;52028.53;5525360;26;20222;-78
2024/04/15 04:22:35;;;;;;;4.03;2.45;;;;;;;-145.69;61.53;52040.41;5525037;26;20217;-78
2024/04/15 04:25:00;;;;;;;8.80;2.95;;;;;;;-145.69;61.84;52024.56;5524803;26;20982;-78
2024/04/15 04:27:29;;;;;;;4.53;2.20;;;;;;;-145.69;61.79;52036.44;5524975;26;20268;-78
2024/04/15 04:29:54;;;;;;;6.30;2.67;;;;;;;-145.69;62.26;52046.34;5524501;26;20259;-78
2024/04/15 04:32:22;;;;;;;5.32;2.90;;;;;;;-145.69;62.87;52016.66;5524463;26;20232;-78
2024/04/15 04:34:53;;;;;;;3.38;2.17;;;;;;;-145.69;63.66;52032.47;5524875;26;20229;-79
2024/04/15 04:37:19;;;;;;;5.75;2.72;;;;;;;-145.69;63.42;52048.31;5524125;26;20234;-78
2024/04/15 04:39:47;;;;;;;4.25;2.50;;;;;;;-145.69;63.48;52046.34;5524163;26;20545;-80
2024/04/15 04:42:12;;;;;;;5.85;2.13;;;;;;;-145.69;63.64;52048.31;5524632;26;20234;-79
2024/04/15 04:44:40;;;;;;;5.68;2.38;;;;;;;-145.69;63.81;52038.44;5524646;26;20316;-78
2024/04/15 04:47:06;;;;;;;3.65;2.58;;;;;;;-145.69;63.85;52028.53;5524425;26;20313;-78
2024/04/15 04:49:34;;;;;;;3.90;2.38;;;;;;;-145.69;64.34;52060.22;5523534;26;20722;-79
2024/04/15 04:52:03;;;;;;;5.40;2.47;;;;;;;-145.69;64.21;52052.28;5524449;26;20221;-77
2024/04/15 04:54:31;;;;;;;4.05;2.28;;;;;;;-145.69;64.66;52000.81;5524356;26;20225;-80
2024/04/15 04:56:56;;;;;;;5.25;3.00;;;;;;;-145.69;65.06;52038.44;5521517;26;20242;-77
2024/04/15 04:59:26;;;;;;;7.45;3.40;;;;;;;-145.69;65.25;52032.47;5522233;26;20770;-80
2024/04/15 05:01:51;;;;;;;4.00;2.78;;;;;;;-145.69;64.80;52046.34;5524224;26;20222;-80
2024/04/15 05:04:19;;;;;;;5.72;3.17;;;;;;;-145.69;64.94;52006.75;5523828;26;20253;-79
2024/04/15 05:06:45;;;;;;;4.45;2.67;;;;;;;-145.69;64.97;52036.44;5525332;26;20222;-79
2024/04/15 05:09:16;;;;;;;5.60;2.83;;;;;;;-145.69;65.13;52058.22;5527542;26;20801;-79
2024/04/15 05:11:41;;;;;;;5.47;3.05;;;;;;;-145.69;64.97;52050.31;5527856;26;20229;-79
2024/04/15 05:14:09;;;;;;;5.28;3.10;;;;;;;-145.69;64.26;52052.28;5528153;26;20753;-78
2024/04/15 05:16:35;;;;;;;6.38;3.15;;;;;;;-145.69;64.59;52036.44;5527935;26;20272;-78
2024/04/15 05:19:04;;;;;;;5.18;3.00;;;;;;;-145.69;63.85;52032.47;5525591;26;20233;-78
2024/04/15 05:21:29;;;;;;;6.85;3.15;;;;;;;-145.69;63.41;52036.44;5527515;26;20279;-78
2024/04/15 05:23:57;;;;;;;4.60;2.95;;;;;;;-145.69;63.36;52040.41;5527723;26;20214;-78
2024/04/15 05:26:25;;;;;;;5.15;2.40;;;;;;;-145.69;62.80;52052.28;5527252;26;20322;-81
2024/04/15 05:28:53;;;;;;;5.57;3.20;;;;;;;-145.69;63.34;52042.38;5527666;26;20225;-79
2024/04/15 05:31:19;;;;;;;5.03;2.53;;;;;;;-145.69;62.89;52026.53;5527980;26;20576;-79
2024/04/15 05:33:47;;;;;;;7.28;3.00;;;;;;;-145.69;62.67;52034.47;5527185;26;20226;-77
2024/04/15 05:36:13;;;;;;;5.55;2.83;;;;;;;-145.69;62.14;52056.25;5527521;26;20830;-79
2024/04/15 05:38:41;;;;;;;3.70;2.65;;;;;;;-145.69;61.94;52040.41;5527371;26;20241;-80
2024/04/15 05:41:06;;;;;;;4.57;2.88;;;;;;;-145.69;61.46;51996.84;5527803;26;20237;-79
2024/04/15 05:43:37;;;;;;;7.18;2.60;;;;;;;-145.69;61.32;52050.31;5526559;26;20345;-80
2024/04/15 05:46:04;;;;;;;4.90;2.33;;;;;;;-145.69;61.31;52030.50;5527397;26;20313;-80
2024/04/15 05:48:32;;;;;;;3.10;2.50;;;;;;;-145.69;61.32;52050.31;5527325;26;20237;-80
2024/04/15 05:50:58;;;;;;;6.10;3.13;;;;;;;-145.69;61.51;52052.28;5527175;26;20748;-80
2024/04/15 05:53:26;;;;;;;4.68;2.50;;;;;;;-145.69;60.94;52024.56;5526422;26;20225;-78
2024/04/15 05:55:52;;;;;;;6.05;3.03;;;;;;;-145.69;61.56;52036.44;5527620;26;20293;-79
2024/04/15 05:58:20;;;;;;;5.70;2.58;;;;;;;-145.69;61.01;52016.66;5527183;26;20229;-79
2024/04/15 06:00:48;;;;;;;5.25;3.05;;;;;;;-145.69;61.29;52022.59;5526766;26;20285;-79
2024/04/15 06:03:16;;;;;;;9.27;2.80;;;;;;;-145.69;60.80;52024.56;5526487;26;20226;-79
2024/04/15 06:05:42;;;;;;;7.97;3.03;;;;;;;-145.69;60.76;52004.75;5527348;26;20750;-78
2024/04/15 06:08:10;;;;;;;4.82;2.95;;;;;;;-145.69;60.89;52032.47;5526907;26;20226;-79
2024/04/15 06:10:38;;;;;;;4.72;2.40;;;;;;;-145.69;60.46;52036.44;5526443;26;20332;-79
2024/04/15 06:13:04;;;;;;;3.50;2.53;;;;;;;-145.69;60.22;52048.31;5527098;26;20256;-78
2024/04/15 06:15:36;;;;;;;5.43;3.03;;;;;;;-145.69;60.12;52048.31;5526370;26;20230;-79
2024/04/15 06:18:05;;;;;;;5.53;3.33;;;;;;;-145.69;59.72;52048.31;5526255;26;20272;-78
2024/04/15 06:20:33;;;;;;;4.38;2.60;;;;;;;-145.69;59.66;52036.44;5527028;26;20265;-78
2024/04/15 06:22:59;;;;;;;4.47;2.50;;;;;;;-145.69;59.38;52032.47;5525891;26;20221;-79
2024/04/15 06:25:27;;;;;;;6.45;2.80;;;;;;;-145.69;59.16;52040.41;5527167;26;20237;-78
2024/04/15 06:27:53;;;;;;;4.78;2.28;;;;;;;-145.69;58.98;52032.47;5526580;26;20280;-78
2024/04/15 06:30:21;;;;;;;5.47;3.22;;;;;;;-145.69;59.16;52016.66;5526103;26;20225;-78
2024/04/15 06:32:46;;;;;;;5.68;2.50;;;;;;;-145.69;58.83;52032.47;5496681;26;20225;-79
2024/04/15 06:35:17;;;;;;;5.93;2.88;;;;;;;-145.69;58.46;52040.41;5526372;26;20832;-78
2024/04/15 06:37:43;;;;;;;4.47;3.03;;;;;;;-145.69;58.30;52038.44;5524807;26;20783;-78
2024/04/15 06:40:11;;;;;;;6.10;3.05;;;;;;;-145.69;57.95;52010.69;5526684;26;20276;-78
2024/04/15 06:42:37;;;;;;;5.93;2.85;;;;;;;-145.69;57.48;52026.53;5526542;26;20217;-77
2024/04/15 06:45:05;;;;;;;6.68;2.67;;;;;;;-145.69;57.35;52010.69;5526599;26;20268;-78
2024/04/15 06:47:31;;;;;;;5.03;2.80;;;;;;;-145.69;57.32;52040.41;5525752;26;20252;-78
2024/04/15 06:49:59;;;;;;;6.30;2.88;;;;;;;-145.69;57.43;52032.47;5525648;26;20229;-79
2024/04/15 06:52:27;;;;;;;7.03;3.22;;;;;;;-145.69;57.09;52028.53;5526404;26;20225;-78
2024/04/15 06:54:55;;;;;;;6.50;3.08;;;;;;;-145.69;57.72;52052.28;5526028;26;20225;-78
2024/04/15 06:57:21;;;;;;;7.25;2.70;;;;;;;-145.69;56.60;51992.88;5520826;26;20226;-80
2024/04/15 06:59:49;;;;;;;5.35;2.83;;;;;;;-145.69;57.00;52048.31;5495471;26;20287;-79
2024/04/15 07:02:19;;;;;;;5.20;2.72;;;;;;;-145.69;57.58;52044.38;5526100;26;20734;-78
2024/04/15 07:04:52;;;;;;;8.70;2.97;;;;;;;-145.69;57.35;52050.31;5526547;26;20554;-79
2024/04/15 07:07:18;;;;;;;4.78;2.60;;;;;;;-145.69;57.48;52036.44;5525703;26;20612;-78
2024/04/15 07:09:49;;;;;;;4.90;2.40;;;;;;;-145.69;58.28;52018.63;5525689;26;20213;-78
2024/04/15 07:12:14;;;;;;;5.07;2.55;;;;;;;-145.69;58.62;52056.25;5526386;26;20692;-78
2024/04/15 07:14:43;;;;;;;5.80;2.90;;;;;;;-145.69;58.47;52036.44;5525483;26;20272;-78
2024/04/15 07:17:08;;;;;;;8.15;3.30;;;;;;;-145.69;58.43;52048.31;5525084;26;20359;-77
2024/04/15 07:19:36;;;;;;;5.15;2.63;;;;;;;-145.69;59.00;52064.16;5525230;26;20241;-79
2024/04/15 07:22:02;;;;;;;5.38;2.88;;;;;;;-145.69;59.81;52042.38;5525819;26;20229;-77
2024/04/15 07:24:30;;;;;;;9.02;3.10;;;;;;;-145.69;61.64;52034.47;5525756;26;20716;-77
2024/04/15 07:26:58;;;;;;;6.40;2.97;;;;;;;-145.69;63.37;52026.53;5526116;26;20310;-77
2024/04/15 07:29:27;;;;;;;6.82;2.92;;;;;;;-145.69;63.73;52080.00;5524658;26;20267;-78
2024/04/15 07:31:54;;;;;;;5.25;2.75;;;;;;;-145.69;64.51;52046.34;5525285;26;20281;-76
2024/04/15 07:34:22;;;;;;;5.43;3.20;;;;;;;-145.69;65.07;52068.13;5525994;26;20696;-76
2024/04/15 07:36:47;;;;;;;5.75;2.78;;;;;;;-145.69;65.63;52060.22;5524928;26;20260;-78
2024/04/15 07:39:16;;;;;;;5.18;2.83;;;;;;;-145.69;65.58;52028.53;5526174;26;20225;-78
2024/04/15 07:41:41;;;;;;;5.97;2.85;;;;;;;-145.69;66.16;52070.09;5525470;26;20241;-77
2024/04/15 07:44:12;;;;;;;6.13;2.95;;;;;;;-145.69;65.91;52024.56;5525438;26;20232;-78
2024/04/15 07:46:37;;;;;;;6.10;3.40;;;;;;;-145.69;66.83;52062.19;5525867;26;20544;-78
2024/04/15 07:49:05;;;;;;;8.30;3.63;;;;;;;-145.69;67.25;52046.34;5526139;26;20226;-78
2024/04/15 07:51:31;;;;;;;6.90;3.03;;;;;;;-145.69;67.53;52024.56;5525321;26;20551;-77
2024/04/15 07:53:59;;;;;;;7.40;3.88;;;;;;;-145.69;67.63;52054.25;5525390;26;20233;-77
2024/04/15 07:56:25;;;;;;;5.25;2.95;;;;;;;-145.69;67.60;52060.22;5525799;26;20237;-77
2024/04/15 07:58:53;;;;;;;8.25;3.35;;;;;;;-145.69;67.68;52066.16;5525430;26;20222;-77
2024/04/15 08:01:21;;;;;;;6.22;3.20;;;;;;;-145.69;67.33;52044.38;5525729;26;20289;-77
2024/04/15 08:03:49;;;;;;;7.55;2.92;;;;;;;-145.69;67.27;52082.00;5525474;26;20624;-77
2024/04/15 08:06:14;;;;;;;6.00;2.95;;;;;;;-145.69;66.69;52083.97;5525099;26;20226;-77
2024/04/15 08:08:43;;;;;;;7.00;3.28;;;;;;;-145.69;66.93;52068.13;5524550;26;20800;-77
2024/04/15 08:11:08;;;;;;;5.40;3.40;;;;;;;-145.69;66.70;52056.25;5523405;26;20263;-77
2024/04/15 08:13:37;;;;;;;4.85;3.17;;;;;;;-145.69;66.26;52024.56;5525228;26;20225;-77
2024/04/15 08:16:03;;;;;;;6.60;2.83;;;;;;;-145.69;65.93;52072.09;5524533;26;20241;-77
2024/04/15 08:18:33;;;;;;;8.13;2.95;;;;;;;-145.69;64.89;52026.53;5525810;26;20696;-77
2024/04/15 08:20:59;;;;;;;5.32;3.20;;;;;;;-145.69;64.70;52036.44;5525131;26;20221;-78
2024/04/15 08:23:27;;;;;;;7.93;3.03;;;;;;;-145.69;63.66;52050.31;5524899;26;20293;-78
2024/04/15 08:25:53;;;;;;;8.20;3.10;;;;;;;-145.69;63.33;52070.09;5524793;26;20332;-78
2024/04/15 08:28:21;;;;;;;5.88;2.83;;;;;;;-145.69;62.87;52032.47;5524114;26;20221;-78
2024/04/15 08:30:46;;;;;;;5.40;2.85;;;;;;;-145.69;60.21;52060.22;5524967;26;20260;-79
2024/04/15 08:33:15;;;;;;;5.70;2.97;;;;;;;-145.69;60.80;52036.44;5522334;26;20253;-77
2024/04/15 08:35:43;;;;;;;5.22;2.63;;;;;;;-145.69;60.45;52040.41;5510928;26;20609;-78
2024/04/15 08:38:11;;;;;;;6.85;2.83;;;;;;;-145.69;60.11;52010.69;5524403;26;20284;-77
2024/04/15 08:40:37;;;;;;;7.57;2.95;;;;;;;-145.69;59.79;52034.47;5524397;26;20229;-78
2024/04/15 08:43:06;;;;;;;9.02;3.10;;;;;;;-145.69;59.92;52042.38;5528412;26;20229;-79
2024/04/15 08:45:33;;;;;;;4.28;2.63;;;;;;;-145.69;59.58;52054.25;5527555;26;20311;-78
2024/04/15 08:48:01;;;;;;;11.32;2.55;;;;;;;-145.69;57.48;52032.47;5528289;26;20595;-79
2024/04/15 08:50:27;;;;;;;4.80;2.20;;;;;;;-145.69;57.04;52016.66;5528138;26;20581;-77
2024/04/15 08:52:58;;;;;;;3.78;2.10;;;;;;;-145.69;56.51;52014.66;5527901;26;20225;-79
2024/04/15 08:55:25;;;;;;;6.60;2.50;;;;;;;-145.69;56.27;52006.75;5527870;26;20252;-77
2024/04/15 08:57:55;;;;;;;7.13;2.20;;;;;;;-145.69;54.98;51992.88;5528062;26;20764;-79
2024/04/15 09:00:21;;;;;;;7.90;2.65;;;;;;;-145.69;55.24;52012.69;5523953;25;20770;-80
2024/04/15 09:02:53;;;;;;;5.90;2.38;;;;;;;-145.69;54.51;52004.75;5527655;25;20241;-79
2024/04/15 09:05:19;;;;;;;4.70;2.28;;;;;;;-145.69;54.84;51988.91;5527336;26;20237;-79
2024/04/15 09:07:47;;;;;;;5.03;2.50;;;;;;;-145.69;53.36;52004.75;5527503;26;20541;-78
2024/04/15 09:10:15;;;;;;;4.70;2.50;;;;;;;-145.69;53.00;52020.59;5527971;26;20263;-79
2024/04/15 09:12:47;;;;;;;6.53;2.50;;;;;;;-145.69;53.01;51973.06;5527677;26;20233;-81
2024/04/15 09:15:14;;;;;;;10.25;2.72;;;;;;;-145.69;53.43;51982.97;5528068;26;20221;-79
2024/04/15 09:17:43;;;;;;;4.38;2.53;;;;;;;-145.69;52.79;51986.94;5527182;26;20713;-80
2024/04/15 09:20:10;;;;;;;7.00;3.13;;;;;;;-145.69;51.48;52020.59;5527784;26;20351;-80
2024/04/15 09:22:39;;;;;;;8.45;3.20;;;;;;;-145.69;51.17;52004.75;5527860;26;20321;-78
2024/04/15 09:25:05;;;;;;;4.10;2.92;;;;;;;-145.69;52.55;51996.84;5527001;26;20233;-80
2024/04/15 09:27:36;;;;;;;6.38;2.63;;;;;;;-145.69;52.42;51996.84;5527768;26;20289;-81
2024/04/15 09:30:03;;;;;;;5.00;2.50;;;;;;;-145.69;52.70;52006.75;5528043;26;20251;-80
2024/04/15 09:32:31;;;;;;;6.75;3.38;;;;;;;-145.69;53.58;51988.91;5527675;26;20277;-79
2024/04/15 09:34:59;;;;;;;5.57;3.22;;;;;;;-145.69;55.32;51984.97;5527248;26;20723;-80
2024/04/15 09:37:28;;;;;;;6.68;3.00;;;;;;;-145.69;53.44;52012.69;5527157;26;20260;-79
2024/04/15 09:39:54;;;;;;;5.75;2.80;;;;;;;-145.69;53.02;51998.81;5527083;26;20317;-79
2024/04/15 09:42:22;;;;;;;5.15;2.90;;;;;;;-145.69;51.72;51986.94;5527115;26;20233;-79
2024/04/15 09:44:51;;;;;;;5.00;2.78;;;;;;;-145.69;50.63;51990.91;5527653;26;20221;-79
2024/04/15 09:47:20;;;;;;;5.20;2.70;;;;;;;-145.69;49.99;51961.19;5527658;26;20218;-79
2024/04/15 09:49:47;;;;;;;5.43;2.63;;;;;;;-145.69;50.21;51951.28;5527596;26;20233;-79
2024/04/15 09:52:23;;;;;;;6.18;3.10;;;;;;;-145.69;48.77;51984.97;5527216;26;20273;-78
2024/04/15 09:54:53;;;;;;;6.32;2.97;;;;;;;-145.69;48.79;51965.16;5527576;26;20337;-80
2024/04/15 09:57:23;;;;;;;4.47;2.60;;;;;;;-145.69;47.41;51986.94;5527464;26;20257;-79
2024/04/15 09:59:56;;;;;;;5.50;2.25;;;;;;;-145.69;47.73;51977.03;5526988;26;20237;-78
2024/04/15 10:02:28;;;;;;;6.05;2.75;;;;;;;-145.69;47.41;51977.03;5526142;26;20289;-78
2024/04/15 10:04:59;;;;;;;4.63;2.33;;;;;;;-145.69;46.87;51981.00;5526537;26;20256;-78
2024/04/15 10:07:30;;;;;;;6.60;2.30;;;;;;;-145.69;47.38;51945.34;5526447;26;20237;-78
2024/04/15 10:09:58;;;;;;;4.53;2.28;;;;;;;-145.69;45.21;51977.03;5527761;26;20277;-78
2024/04/15 10:12:27;;;;;;;5.43;2.00;;;;;;;-145.69;46.06;51947.34;5526535;26;20589;-78
2024/04/15 10:14:57;;;;;;;4.30;2.35;;;;;;;-145.69;46.00;51947.34;5527118;26;20263;-78
2024/04/15 10:17:28;;;;;;;6.60;2.40;;;;;;;-145.69;45.90;51949.31;5525413;26;20364;-78
2024/04/15 10:19:53;;;;;;;6.65;2.25;;;;;;;-145.69;45.67;51957.25;5526962;26;20272;-79
2024/04/15 10:22:24;;;;;;;6.20;2.40;;;;;;;-145.69;44.71;51979.03;5527255;26;20701;-79
2024/04/15 10:24:49;;;;;;;4.47;2.03;;;;;;;-145.69;45.32;51961.19;5526385;26;20688;-80
2024/04/15 10:27:18;;;;;;;5.97;1.52;;;;;;;-145.69;45.80;51981.00;5526571;26;20305;-79
2024/04/15 10:29:44;;;;;;;4.65;1.98;;;;;;;-145.69;46.17;51984.97;5526983;26;20221;-80
2024/04/15 10:32:15;;;;;;;4.22;1.80;;;;;;;-145.69;46.70;52004.75;5527014;26;20218;-79
2024/04/15 10:34:42;;;;;;;8.68;2.42;;;;;;;-145.69;47.96;52000.81;5525066;26;20362;-79
2024/04/15 10:37:14;;;;;;;9.35;2.30;;;;;;;-145.69;48.26;52004.75;5526600;26;20692;-79
2024/04/15 10:39:44;;;;;;;5.47;2.25;;;;;;;-145.69;48.88;51981.00;5526199;26;20556;-79
2024/04/15 10:42:12;;;;;;;7.43;2.15;;;;;;;-145.69;47.88;52012.69;5513374;25;20754;-79
2024/04/15 10:44:37;;;;;;;5.00;2.15;;;;;;;-145.69;48.16;52012.69;5490099;26;20222;-80
2024/04/15 10:47:07;;;;;;;3.58;2.28;;;;;;;-145.69;48.07;51975.06;5489765;26;20219;-80
2024/04/15 10:49:35;;;;;;;4.32;1.90;;;;;;;-145.69;48.18;51992.88;5489596;26;20227;-79
2024/04/15 10:52:03;;;;;;;6.15;2.30;;;;;;;-145.69;48.94;51945.34;5510978;26;20275;-80
2024/04/15 10:54:31;;;;;;;9.02;2.15;;;;;;;-145.69;48.56;51935.47;5526521;26;20226;-82
2024/04/15 10:57:00;;;;;;;6.22;2.25;;;;;;;-145.69;48.88;51961.19;5525656;26;20305;-78
2024/04/15 10:59:26;;;;;;;7.13;2.75;;;;;;;-145.69;48.89;52008.72;5526444;26;20325;-78
2024/04/15 11:01:54;;;;;;;4.88;2.55;;;;;;;-145.69;48.54;51973.06;5522829;26;20788;-78
2024/04/15 11:04:20;;;;;;;5.93;2.60;;;;;;;-145.69;48.31;51977.03;5496203;26;20261;-77
2024/04/15 11:06:51;;;;;;;3.75;2.00;;;;;;;-145.69;48.67;51969.13;5526259;26;20238;-80
2024/04/15 11:09:16;;;;;;;4.97;2.30;;;;;;;-145.69;48.16;51957.25;5525903;26;20824;-78
2024/04/15 11:11:45;;;;;;;6.90;2.17;;;;;;;-145.69;48.29;51957.25;5526408;26;20233;-80
2024/04/15 11:14:11;;;;;;;5.53;2.30;;;;;;;-145.69;48.10;51984.97;5526098;26;20225;-78
2024/04/15 11:16:45;;;;;;;2.40;1.65;;;;;;;-145.69;46.93;51955.25;5525309;26;20222;-79
2024/04/15 11:19:11;;;;;;;5.50;2.25;;;;;;;-145.69;46.51;51955.25;5526183;26;20324;-79